Hillsboro, Virginia
Current Conditions -  °F | °C
As of 3:15 AM on Sunday 26 Oct 2014 (Local Time) from KJYO Reporting Station
Clear Clear  
Wind Chill: 64°   Ceiling: Unl
Heat Index: 64°   Visibility: 10mi
Dew Point: 46°   Wind: 15mph
Humidity: 52%   Direction: 310°NW
Pressure: 29.7"   Gusts: 23mph
Location:  39.1337°N, 77.7065°W
Report Text: KJYO 260715Z AUTO 31013G20KT 10SM CLR 18/08 A2970 RMK AO2
Loading
Personal Weather Stations






























Interactive Weather Map
Tropical Storm Tracking
New forecast layout! Learn more

10-Day Weather Forecast

Advertisements
Track Severe Weather on mobile